createdAt,value
2018-05-10T00:00:48.414Z,97678.25
2018-05-10T00:03:16.549Z,97679.08
2018-05-10T00:05:44.698Z,97679.19
2018-05-10T00:08:12.824Z,97676.17
2018-05-10T00:10:40.958Z,97674.25
2018-05-10T00:13:09.095Z,97681.53
2018-05-10T00:15:37.234Z,97683.80
2018-05-10T00:18:05.362Z,97675.66
2018-05-10T00:20:33.532Z,97679.05
2018-05-10T00:23:01.671Z,97685.36
2018-05-10T00:25:29.781Z,97680.58
2018-05-10T00:27:58.078Z,97675.66
2018-05-10T00:30:26.232Z,97679.62
2018-05-10T00:32:55.143Z,97678.28
2018-05-10T00:35:23.308Z,97680.36
2018-05-10T00:37:51.433Z,97678.00
2018-05-10T00:40:19.557Z,97682.03
2018-05-10T00:42:47.694Z,97677.53
2018-05-10T00:45:15.826Z,97686.66
2018-05-10T00:47:43.958Z,97689.25
2018-05-10T00:50:12.106Z,97689.44
2018-05-10T00:52:40.234Z,97691.77
2018-05-10T00:55:08.393Z,97692.75
2018-05-10T00:57:36.543Z,97689.70
2018-05-10T01:00:04.673Z,97692.97
2018-05-10T01:02:32.797Z,97691.98
2018-05-10T01:05:00.963Z,97692.70
2018-05-10T01:07:29.096Z,97694.27
2018-05-10T01:09:57.221Z,97696.81
2018-05-10T01:12:25.371Z,97695.16
2018-05-10T01:14:53.498Z,97699.80
2018-05-10T01:17:21.627Z,97697.73
2018-05-10T01:19:49.782Z,97692.95
2018-05-10T01:22:17.901Z,97691.55
2018-05-10T01:24:46.042Z,97695.66
2018-05-10T01:27:14.190Z,97697.58
2018-05-10T01:29:42.326Z,97697.48
2018-05-10T01:32:10.454Z,97695.52
2018-05-10T01:34:38.604Z,97699.51
2018-05-10T01:37:06.787Z,97699.95
2018-05-10T01:39:34.908Z,97701.02
2018-05-10T01:42:03.042Z,97695.40
2018-05-10T01:44:31.162Z,97703.00
2018-05-10T01:46:59.294Z,97699.75
2018-05-10T01:49:27.430Z,97690.24
2018-05-10T01:51:55.563Z,97696.67
2018-05-10T01:54:23.689Z,97699.75
2018-05-10T01:56:52.388Z,97702.97
2018-05-10T01:59:20.522Z,97702.07
2018-05-10T02:01:48.645Z,97697.92
2018-05-10T02:04:16.771Z,97686.34
2018-05-10T02:06:44.890Z,97693.88
2018-05-10T02:09:13.018Z,97694.98
2018-05-10T02:11:41.145Z,97694.08
2018-05-10T02:14:09.255Z,97699.87
2018-05-10T02:16:37.382Z,97699.50
2018-05-10T02:19:05.615Z,97696.45
2018-05-10T02:21:33.743Z,97690.73
2018-05-10T02:24:01.859Z,97686.78
2018-05-10T02:26:30.005Z,97690.83
2018-05-10T02:28:58.136Z,97690.73
2018-05-10T02:31:26.287Z,97691.70
2018-05-10T02:33:54.458Z,97687.72
2018-05-10T02:36:22.642Z,97691.92
2018-05-10T02:38:50.711Z,97685.83
2018-05-10T02:41:18.850Z,97684.95
2018-05-10T02:43:46.989Z,97687.12
2018-05-10T02:46:15.113Z,97679.93
2018-05-10T02:48:43.267Z,97677.15
2018-05-10T02:51:11.409Z,97687.35
2018-05-10T02:53:39.556Z,97682.83
2018-05-10T02:56:07.696Z,97701.72
2018-05-10T02:58:35.819Z,97713.66
2018-05-10T03:01:03.956Z,97712.45
2018-05-10T03:03:32.158Z,97714.25
2018-05-10T03:06:00.284Z,97710.84
2018-05-10T03:08:28.422Z,97713.70
2018-05-10T03:10:56.555Z,97723.48
2018-05-10T03:13:24.764Z,97726.30
2018-05-10T03:15:52.889Z,97725.52
2018-05-10T03:18:21.031Z,97719.53
2018-05-10T03:20:49.161Z,97730.08
2018-05-10T03:23:17.294Z,97726.47
2018-05-10T03:25:45.448Z,97736.37
2018-05-10T03:28:13.580Z,97741.73
2018-05-10T03:30:41.711Z,97737.46
2018-05-10T03:33:10.316Z,97733.95
2018-05-10T03:35:38.423Z,97731.69
2018-05-10T03:38:06.567Z,97732.34
2018-05-10T03:40:34.724Z,97733.41
2018-05-10T03:43:02.834Z,97741.70
2018-05-10T03:45:30.970Z,97743.13
2018-05-10T03:47:59.144Z,97740.67
2018-05-10T03:50:27.290Z,97741.67
2018-05-10T03:52:55.895Z,97738.55
2018-05-10T03:55:24.031Z,97737.39
2018-05-10T03:57:52.147Z,97732.79
2018-05-10T04:00:20.275Z,97739.88
2018-05-10T04:06:15.780Z,97748.55
2018-05-10T04:08:55.620Z,97757.17
2018-05-10T04:11:26.555Z,97755.41
2018-05-10T04:13:54.698Z,97759.09
2018-05-10T04:16:22.832Z,97769.45
2018-05-10T04:18:51.980Z,97764.03
2018-05-10T04:21:20.135Z,97763.95
2018-05-10T04:23:48.354Z,97757.19
2018-05-10T04:26:16.483Z,97754.51
2018-05-10T04:28:44.613Z,97754.08
2018-05-10T04:31:12.749Z,97757.36
2018-05-10T04:33:40.892Z,97771.02
2018-05-10T04:36:09.014Z,97767.55
2018-05-10T04:38:37.138Z,97769.71
2018-05-10T04:41:05.282Z,97768.02
2018-05-10T04:43:33.428Z,97768.52
2018-05-10T04:46:01.562Z,97769.34
2018-05-10T04:48:29.695Z,97774.95
2018-05-10T04:50:57.846Z,97782.16
2018-05-10T04:53:25.979Z,97779.48
2018-05-10T04:55:54.108Z,97778.08
2018-05-10T04:58:22.245Z,97773.60
2018-05-10T05:00:50.389Z,97779.60
2018-05-10T05:03:18.533Z,97780.34
2018-05-10T05:05:46.794Z,97778.38
2018-05-10T05:08:14.945Z,97778.22
2018-05-10T05:10:43.067Z,97770.86
2018-05-10T05:13:11.185Z,97772.67
2018-05-10T05:15:39.320Z,97775.25
2018-05-10T05:18:07.465Z,97773.30
2018-05-10T05:20:35.589Z,97777.34
2018-05-10T05:23:03.729Z,97782.69
2018-05-10T05:25:31.864Z,97791.67
2018-05-10T05:28:00.017Z,97785.58
2018-05-10T05:30:28.174Z,97788.42
2018-05-10T05:32:56.313Z,97785.25
2018-05-10T05:35:24.445Z,97789.02
2018-05-10T05:37:52.578Z,97791.80
2018-05-10T05:40:20.729Z,97793.14
2018-05-10T05:42:48.870Z,97788.89
2018-05-10T05:45:17.007Z,97791.56
2018-05-10T05:47:45.137Z,97794.92
2018-05-10T05:50:13.289Z,97800.33
2018-05-10T05:52:41.490Z,97807.98
2018-05-10T05:55:11.073Z,97817.73
2018-05-10T05:57:39.226Z,97823.46
2018-05-10T06:00:07.642Z,97822.48
2018-05-10T06:02:35.805Z,97822.92
2018-05-10T06:05:04.053Z,97822.16
2018-05-10T06:07:32.207Z,97830.94
2018-05-10T06:10:00.340Z,97828.44
2018-05-10T06:12:28.463Z,97823.22
2018-05-10T06:14:56.638Z,97828.36
2018-05-10T06:17:24.774Z,97827.30
2018-05-10T06:19:52.965Z,97831.46
2018-05-10T06:22:21.093Z,97829.81
2018-05-10T06:24:49.274Z,97831.66
2018-05-10T06:27:17.401Z,97826.56
2018-05-10T06:29:45.560Z,97831.41
2018-05-10T06:32:13.726Z,97834.48
2018-05-10T06:34:41.858Z,97837.11
2018-05-10T06:37:10.582Z,97832.95
2018-05-10T06:39:38.705Z,97846.17
2018-05-10T06:42:06.889Z,97851.02
2018-05-10T06:44:35.055Z,97849.13
2018-05-10T06:47:03.184Z,97849.91
2018-05-10T06:49:31.324Z,97847.09
2018-05-10T06:51:59.504Z,97844.12
2018-05-10T06:54:27.650Z,97839.16
2018-05-10T06:56:55.857Z,97841.01
2018-05-10T06:59:24.147Z,97838.33
2018-05-10T07:01:52.260Z,97833.97
2018-05-10T07:04:20.415Z,97840.97
2018-05-10T07:06:48.577Z,97843.87
2018-05-10T07:11:51.051Z,97847.94
2018-05-10T07:14:19.197Z,97843.28
2018-05-10T07:16:47.352Z,97852.20
2018-05-10T07:19:15.617Z,97842.92
2018-05-10T07:21:43.766Z,97846.66
2018-05-10T07:24:11.919Z,97857.00
2018-05-10T07:26:40.086Z,97859.78
2018-05-10T07:29:08.267Z,97860.15
2018-05-10T07:31:36.415Z,97859.30
2018-05-10T07:34:04.548Z,97855.71
2018-05-10T07:36:32.675Z,97854.70
2018-05-10T07:39:00.836Z,97857.85
2018-05-10T07:41:28.964Z,97856.19
2018-05-10T07:43:57.094Z,97855.88
2018-05-10T07:46:25.238Z,97863.17
2018-05-10T07:48:53.376Z,97866.25
2018-05-10T07:51:21.496Z,97858.34
2018-05-10T07:53:49.649Z,97867.27
2018-05-10T07:56:17.799Z,97857.13
2018-05-10T07:58:45.929Z,97858.79
2018-05-10T08:01:14.070Z,97864.07
2018-05-10T08:03:42.217Z,97863.43
2018-05-10T08:06:10.358Z,97864.33
2018-05-10T08:08:38.485Z,97865.80
2018-05-10T08:11:07.348Z,97867.61
2018-05-10T08:13:35.498Z,97863.41
2018-05-10T08:16:03.619Z,97864.02
2018-05-10T08:18:32.501Z,97868.16
2018-05-10T08:21:00.673Z,97877.17
2018-05-10T08:26:26.320Z,97873.77
2018-05-10T08:28:54.470Z,97876.92
2018-05-10T08:31:22.635Z,97875.26
2018-05-10T08:33:50.757Z,97876.06
2018-05-10T08:36:18.892Z,97880.13
2018-05-10T08:38:47.031Z,97883.05
2018-05-10T08:41:15.381Z,97878.42
2018-05-10T08:43:43.508Z,97875.80
2018-05-10T08:46:11.671Z,97871.23
2018-05-10T08:48:39.808Z,97875.36
2018-05-10T08:51:07.987Z,97880.55
2018-05-10T08:53:37.130Z,97878.36
2018-05-10T08:56:05.263Z,97876.80
2018-05-10T08:58:33.404Z,97877.30
2018-05-10T09:01:01.563Z,97877.31
2018-05-10T09:03:29.693Z,97870.08
2018-05-10T09:05:57.852Z,97872.95
2018-05-10T09:08:25.976Z,97875.16
2018-05-10T09:10:54.124Z,97874.66
2018-05-10T09:13:22.265Z,97874.66
2018-05-10T09:15:50.466Z,97875.83
2018-05-10T09:18:18.577Z,97877.58
2018-05-10T09:20:47.851Z,97877.94
2018-05-10T09:23:16.026Z,97879.70
2018-05-10T09:25:44.253Z,97882.83
2018-05-10T09:28:13.253Z,97882.98
2018-05-10T09:30:41.385Z,97878.28
2018-05-10T09:33:10.333Z,97871.77
2018-05-10T09:35:38.498Z,97876.53
2018-05-10T09:38:06.635Z,97878.52
2018-05-10T09:40:34.766Z,97882.55
2018-05-10T09:43:02.900Z,97877.75
2018-05-10T09:45:31.035Z,97884.56
2018-05-10T09:47:59.171Z,97883.27
2018-05-10T09:50:27.315Z,97889.61
2018-05-10T09:52:55.464Z,97883.39
2018-05-10T09:55:23.594Z,97884.36
2018-05-10T09:57:51.734Z,97886.85
2018-05-10T10:00:25.412Z,97890.41
2018-05-10T10:02:53.561Z,97883.64
2018-05-10T10:05:21.703Z,97884.37
2018-05-10T10:07:49.845Z,97883.16
2018-05-10T10:10:18.189Z,97883.88
2018-05-10T10:12:46.319Z,97890.36
2018-05-10T10:15:14.859Z,97879.02
2018-05-10T10:17:43.281Z,97880.39
2018-05-10T10:20:11.355Z,97883.18
2018-05-10T10:22:39.473Z,97884.16
2018-05-10T10:25:07.740Z,97885.44
2018-05-10T10:27:35.797Z,97882.41
2018-05-10T10:30:03.932Z,97876.56
2018-05-10T10:32:32.455Z,97881.84
2018-05-10T10:35:00.594Z,97877.27
2018-05-10T10:37:28.722Z,97874.48
2018-05-10T10:39:57.018Z,97875.02
2018-05-10T10:42:25.148Z,97874.61
2018-05-10T10:44:53.279Z,97875.26
2018-05-10T10:47:21.475Z,97882.50
2018-05-10T10:49:49.590Z,97881.92
2018-05-10T10:52:17.723Z,97883.17
2018-05-10T10:54:45.857Z,97880.55
2018-05-10T10:57:13.991Z,97880.11
2018-05-10T10:59:42.122Z,97875.52
2018-05-10T11:02:10.327Z,97884.38
2018-05-10T11:04:38.450Z,97871.37
2018-05-10T11:07:06.661Z,97875.84
2018-05-10T11:09:34.814Z,97870.00
2018-05-10T11:12:02.937Z,97862.88
2018-05-10T11:14:31.077Z,97865.13
2018-05-10T11:16:59.194Z,97861.23
2018-05-10T11:19:27.358Z,97870.98
2018-05-10T11:21:55.476Z,97874.28
2018-05-10T11:24:23.599Z,97868.44
2018-05-10T11:26:51.763Z,97873.69
2018-05-10T11:29:19.954Z,97877.13
2018-05-10T11:31:48.069Z,97870.92
2018-05-10T11:34:16.221Z,97868.23
2018-05-10T11:36:44.369Z,97870.84
2018-05-10T11:39:12.585Z,97877.47
2018-05-10T11:41:40.798Z,97867.44
2018-05-10T11:44:08.949Z,97867.14
2018-05-10T11:46:37.110Z,97861.53
2018-05-10T11:49:05.267Z,97861.45
2018-05-10T11:51:33.391Z,97860.67
2018-05-10T11:54:01.593Z,97853.26
2018-05-10T11:56:29.833Z,97857.31
2018-05-10T11:58:57.995Z,97853.73
2018-05-10T12:01:26.153Z,97853.77
2018-05-10T12:03:54.297Z,97847.85
2018-05-10T12:06:22.482Z,97848.34
2018-05-10T12:08:50.619Z,97849.32
2018-05-10T12:11:18.755Z,97849.55
2018-05-10T12:13:46.881Z,97845.09
2018-05-10T12:16:15.035Z,97843.87
2018-05-10T12:18:43.181Z,97846.39
2018-05-10T12:21:11.294Z,97842.24
2018-05-10T12:23:39.462Z,97840.19
2018-05-10T12:26:07.646Z,97830.92
2018-05-10T12:28:35.774Z,97824.49
2018-05-10T12:31:03.953Z,97836.44
2018-05-10T12:33:32.027Z,97822.11
2018-05-10T12:36:00.151Z,97826.45
2018-05-10T12:38:28.284Z,97832.94
2018-05-10T12:40:56.405Z,97840.28
2018-05-10T12:43:24.533Z,97841.53
2018-05-10T12:45:52.680Z,97844.64
2018-05-10T12:48:20.811Z,97844.02
2018-05-10T12:50:48.923Z,97845.59
2018-05-10T12:53:17.067Z,97850.41
2018-05-10T12:55:45.184Z,97847.99
2018-05-10T12:58:13.302Z,97857.58
2018-05-10T13:00:41.518Z,97857.92
2018-05-10T13:03:10.231Z,97838.56
2018-05-10T13:05:38.360Z,97845.00
2018-05-10T13:08:06.496Z,97857.07
2018-05-10T13:10:34.626Z,97856.31
2018-05-10T13:13:02.746Z,97859.19
2018-05-10T13:15:30.868Z,97866.98
2018-05-10T13:17:58.987Z,97866.22
2018-05-10T13:20:27.101Z,97875.99
2018-05-10T13:22:55.225Z,97873.52
2018-05-10T13:25:23.363Z,97872.35
2018-05-10T13:27:51.477Z,97866.66
2018-05-10T13:30:19.597Z,97861.81
2018-05-10T13:32:47.734Z,97859.50
2018-05-10T13:35:15.870Z,97866.77
2018-05-10T13:37:43.998Z,97873.23
2018-05-10T13:40:12.129Z,97882.72
2018-05-10T13:42:40.263Z,97898.18
2018-05-10T13:45:08.392Z,97909.45
2018-05-10T13:47:36.576Z,97920.08
2018-05-10T13:50:04.645Z,97937.89
2018-05-10T13:52:32.811Z,97969.45
2018-05-10T13:55:00.953Z,98004.30
2018-05-10T13:57:29.078Z,98020.80
2018-05-10T13:59:57.229Z,98015.22
2018-05-10T14:02:25.346Z,98009.16
2018-05-10T14:04:53.463Z,98041.72
2018-05-10T14:07:21.597Z,98040.60
2018-05-10T14:09:49.728Z,98051.02
2018-05-10T14:12:17.866Z,98058.30
2018-05-10T14:14:45.990Z,98046.27
2018-05-10T14:17:14.126Z,98043.02
2018-05-10T14:19:48.707Z,98049.03
2018-05-10T14:22:23.042Z,98041.86
2018-05-10T14:24:52.310Z,98046.61
2018-05-10T14:27:20.494Z,98041.10
2018-05-10T14:29:48.889Z,98037.28
2018-05-10T14:32:30.455Z,98031.63
2018-05-10T14:35:01.420Z,98025.19
2018-05-10T14:37:29.597Z,98021.62
2018-05-10T14:39:57.755Z,98023.12
2018-05-10T14:42:25.913Z,98033.95
2018-05-10T14:44:54.054Z,98051.78
2018-05-10T14:47:22.199Z,98059.39
2018-05-10T14:49:50.355Z,98070.38
2018-05-10T14:52:18.475Z,98073.25
2018-05-10T14:54:46.647Z,98077.45
2018-05-10T14:57:14.821Z,98079.93
2018-05-10T14:59:42.987Z,98088.17
2018-05-10T15:02:11.113Z,98083.24
2018-05-10T15:04:39.224Z,98074.92
2018-05-10T15:07:07.380Z,98080.23
2018-05-10T15:09:35.510Z,98089.34
2018-05-10T15:12:03.675Z,98099.97
2018-05-10T15:14:31.794Z,98103.48
2018-05-10T15:16:59.938Z,98096.43
2018-05-10T15:19:28.107Z,98091.12
2018-05-10T15:21:56.243Z,98099.82
2018-05-10T15:24:24.385Z,98098.94
2018-05-10T15:26:52.514Z,98091.32
2018-05-10T15:29:20.646Z,98092.27
2018-05-10T15:31:48.800Z,98097.97
2018-05-10T15:34:16.940Z,98095.48
2018-05-10T15:36:45.086Z,98098.23
2018-05-10T15:39:13.282Z,98098.19
2018-05-10T15:41:41.365Z,98106.28
2018-05-10T15:44:09.508Z,98105.25
2018-05-10T15:46:37.630Z,98104.13
2018-05-10T15:49:05.778Z,98116.16
2018-05-10T15:51:33.932Z,98119.17
2018-05-10T15:54:02.079Z,98110.91
2018-05-10T15:56:30.189Z,98113.48
2018-05-10T15:58:58.343Z,98123.59
2018-05-10T16:01:26.467Z,98119.15
2018-05-10T16:03:54.611Z,98130.95
2018-05-10T16:06:22.739Z,98124.84
2018-05-10T16:08:50.887Z,98121.03
2018-05-10T16:11:19.002Z,98129.14
2018-05-10T16:13:47.203Z,98119.23
2018-05-10T16:16:15.286Z,98123.72
2018-05-10T16:18:43.422Z,98118.41
2018-05-10T16:21:11.559Z,98124.06
2018-05-10T16:23:39.735Z,98123.12
2018-05-10T16:26:07.868Z,98118.67
2018-05-10T16:28:36.000Z,98111.64
2018-05-10T16:31:04.143Z,98118.78
2018-05-10T16:33:32.348Z,98117.58
2018-05-10T16:36:00.415Z,98119.23
2018-05-10T16:38:28.546Z,98121.97
2018-05-10T16:40:57.689Z,98122.67
2018-05-10T16:43:26.461Z,98116.69
2018-05-10T16:45:54.599Z,98116.06
2018-05-10T16:48:22.733Z,98112.75
2018-05-10T16:50:50.891Z,98104.42
2018-05-10T16:53:19.129Z,98107.22
2018-05-10T16:55:47.206Z,98108.36
2018-05-10T16:58:15.372Z,98118.48
2018-05-10T17:00:43.506Z,98123.04
2018-05-10T17:03:11.852Z,98121.78
2018-05-10T17:05:40.011Z,98123.20
2018-05-10T17:08:08.157Z,98125.64
2018-05-10T17:10:36.305Z,98128.91
2018-05-10T17:13:04.455Z,98132.80
2018-05-10T17:15:32.575Z,98135.13
2018-05-10T17:18:00.718Z,98147.00
2018-05-10T17:20:28.902Z,98145.22
2018-05-10T17:22:57.068Z,98150.35
2018-05-10T17:25:25.234Z,98161.33
2018-05-10T17:27:53.354Z,98164.70
2018-05-10T17:30:22.427Z,98173.89
2018-05-10T17:32:50.605Z,98173.95
2018-05-10T17:35:18.755Z,98171.68
2018-05-10T17:37:46.889Z,98185.30
2018-05-10T17:40:15.045Z,98183.52
2018-05-10T17:42:43.218Z,98182.31
2018-05-10T17:45:11.347Z,98189.06
2018-05-10T17:47:39.470Z,98191.08
2018-05-10T17:50:07.604Z,98197.64
2018-05-10T17:52:35.749Z,98207.47
2018-05-10T17:55:03.899Z,98209.71
2018-05-10T17:57:32.351Z,98216.17
2018-05-10T18:00:01.803Z,98220.89
2018-05-10T18:02:29.930Z,98217.97
2018-05-10T18:04:58.094Z,98223.89
2018-05-10T18:07:26.235Z,98222.73
2018-05-10T18:09:54.404Z,98221.53
2018-05-10T18:12:22.568Z,98219.81
2018-05-10T18:14:50.711Z,98231.78
2018-05-10T18:17:18.866Z,98238.64
2018-05-10T18:19:47.078Z,98238.82
2018-05-10T18:22:15.211Z,98241.14
2018-05-10T18:24:44.362Z,98245.52
2018-05-10T18:27:12.552Z,98251.86
2018-05-10T18:29:40.715Z,98243.95
2018-05-10T18:32:08.836Z,98261.38
2018-05-10T18:34:37.091Z,98273.25
2018-05-10T18:37:05.247Z,98274.91
2018-05-10T18:39:34.554Z,98287.72
2018-05-10T18:42:03.199Z,98299.47
2018-05-10T18:44:31.362Z,98308.58
2018-05-10T18:46:59.475Z,98314.72
2018-05-10T18:49:27.647Z,98317.84
2018-05-10T18:51:55.817Z,98328.41
2018-05-10T18:54:23.976Z,98331.58
2018-05-10T18:56:52.133Z,98331.78
2018-05-10T18:59:20.263Z,98345.03
2018-05-10T19:01:48.395Z,98348.57
2018-05-10T19:04:16.598Z,98348.89
2018-05-10T19:06:44.718Z,98352.55
2018-05-10T19:09:12.899Z,98355.05
2018-05-10T19:11:41.086Z,98363.16
2018-05-10T19:14:09.242Z,98363.44
2018-05-10T19:16:37.394Z,98364.56
2018-05-10T19:19:05.593Z,98364.56
2018-05-10T19:21:33.715Z,98367.81
2018-05-10T19:24:01.842Z,98371.87
2018-05-10T19:26:29.983Z,98382.94
2018-05-10T19:28:58.108Z,98383.42
2018-05-10T19:31:26.242Z,98377.70
2018-05-10T19:33:54.373Z,98380.25
2018-05-10T19:36:22.493Z,98375.61
2018-05-10T19:38:50.659Z,98372.67
2018-05-10T19:41:18.805Z,98374.51
2018-05-10T19:43:46.937Z,98387.77
2018-05-10T19:46:15.114Z,98391.05
2018-05-10T19:48:43.254Z,98392.14
2018-05-10T19:51:11.461Z,98392.95
2018-05-10T19:53:39.542Z,98396.05
2018-05-10T19:56:09.253Z,98398.03
2018-05-10T19:58:37.413Z,98408.16
2018-05-10T20:01:05.549Z,98412.61
2018-05-10T20:03:33.676Z,98414.99
2018-05-10T20:06:01.831Z,98422.07
2018-05-10T20:08:30.198Z,98430.79
2018-05-10T20:10:58.334Z,98428.69
2018-05-10T20:13:26.510Z,98432.63
2018-05-10T20:15:54.630Z,98435.25
2018-05-10T20:18:22.837Z,98440.46
2018-05-10T20:20:50.973Z,98441.87
2018-05-10T20:23:19.099Z,98441.78
2018-05-10T20:25:47.247Z,98449.09
2018-05-10T20:28:15.515Z,98449.62
2018-05-10T20:30:43.526Z,98454.41
2018-05-10T20:33:11.647Z,98457.25
2018-05-10T20:35:39.778Z,98453.25
2018-05-10T20:38:07.915Z,98452.36
2018-05-10T20:40:36.090Z,98459.41
2018-05-10T20:43:04.248Z,98450.50
2018-05-10T20:45:32.361Z,98452.80
2018-05-10T20:48:00.493Z,98455.15
2018-05-10T20:50:28.691Z,98458.26
2018-05-10T20:52:56.810Z,98453.25
2018-05-10T20:55:24.929Z,98464.32
2018-05-10T20:57:53.078Z,98461.13
2018-05-10T21:00:21.212Z,98472.42
2018-05-10T21:02:49.352Z,98481.45
2018-05-10T21:05:17.484Z,98482.77
2018-05-10T21:07:45.623Z,98486.49
2018-05-10T21:10:13.761Z,98491.51
2018-05-10T21:12:42.811Z,98494.41
2018-05-10T21:15:10.945Z,98500.75
2018-05-10T21:17:39.106Z,98496.20
2018-05-10T21:20:07.237Z,98500.95
2018-05-10T21:22:35.358Z,98506.52
2018-05-10T21:25:03.502Z,98511.66
2018-05-10T21:27:45.296Z,98517.52
2018-05-10T21:30:15.140Z,98519.69
2018-05-10T21:32:48.546Z,98511.12
2018-05-10T21:35:17.989Z,98517.18
2018-05-10T21:37:46.381Z,98521.23
2018-05-10T21:40:14.501Z,98527.41
2018-05-10T21:42:42.639Z,98534.61
2018-05-10T21:45:10.762Z,98538.37
2018-05-10T21:47:38.923Z,98534.63
2018-05-10T21:50:07.098Z,98545.66
2018-05-10T21:52:35.218Z,98538.51
2018-05-10T21:55:03.396Z,98542.63
2018-05-10T21:57:31.524Z,98551.44
2018-05-10T21:59:59.661Z,98551.54
2018-05-10T22:02:27.812Z,98556.42
2018-05-10T22:04:55.972Z,98558.67
2018-05-10T22:07:24.092Z,98571.33
2018-05-10T22:09:52.243Z,98580.42
2018-05-10T22:12:20.375Z,98579.87
2018-05-10T22:14:49.202Z,98587.83
2018-05-10T22:17:17.333Z,98584.33
2018-05-10T22:19:45.482Z,98583.00
2018-05-10T22:22:13.619Z,98598.09
2018-05-10T22:24:41.747Z,98604.13
2018-05-10T22:27:10.141Z,98581.13
2018-05-10T22:29:38.295Z,98601.39
2018-05-10T22:32:06.426Z,98600.04
2018-05-10T22:34:34.588Z,98608.48
2018-05-10T22:37:02.698Z,98607.45
2018-05-10T22:39:30.854Z,98603.61
2018-05-10T22:41:58.994Z,98614.29
2018-05-10T22:44:30.306Z,98609.84
2018-05-10T22:46:58.355Z,98614.30
2018-05-10T22:49:26.486Z,98619.25
2018-05-10T22:51:54.633Z,98616.52
2018-05-10T22:54:22.768Z,98608.61
2018-05-10T22:56:50.909Z,98620.59
2018-05-10T22:59:19.030Z,98620.99
2018-05-10T23:01:47.154Z,98619.88
2018-05-10T23:04:15.301Z,98619.56
2018-05-10T23:06:43.425Z,98626.17
2018-05-10T23:09:11.547Z,98628.44
2018-05-10T23:11:39.688Z,98631.45
2018-05-10T23:14:07.819Z,98634.46
2018-05-10T23:16:35.948Z,98633.56
2018-05-10T23:19:04.068Z,98639.77
2018-05-10T23:21:32.188Z,98638.25
2018-05-10T23:24:00.315Z,98638.10
2018-05-10T23:26:28.433Z,98640.53
2018-05-10T23:28:56.562Z,98640.59
2018-05-10T23:31:24.679Z,98646.92
2018-05-10T23:33:56.083Z,98643.64
2018-05-10T23:36:24.218Z,98644.14
2018-05-10T23:38:52.338Z,98638.25
2018-05-10T23:41:20.456Z,98652.27
2018-05-10T23:43:48.591Z,98646.66
2018-05-10T23:46:16.739Z,98651.16
2018-05-10T23:48:45.016Z,98654.03
2018-05-10T23:51:13.147Z,98654.48
2018-05-10T23:53:41.269Z,98662.17
2018-05-10T23:56:09.385Z,98657.54
2018-05-10T23:58:37.523Z,98657.98
